Time;durP1;ratioP1;P1;durP2;ratioP2;P2;SDS_P1;SDS_P2;PMS_P1;PMS_P2;Temp;Humidity;BMP_temperature;BMP_pressure;BME280_temperature;BME280_humidity;BME280_pressure;Samples;Min_cycle;Max_cycle;Signal;HPM_P1;HPM_P2
2021/10/22 00:01:21;;;;;;;10.70;3.20;;;13.20;99.90;;;;;;6183679;23;20035;-83
2021/10/22 00:03:47;;;;;;;10.60;3.55;;;13.20;99.90;;;;;;6183585;23;20134;-82
2021/10/22 00:06:12;;;;;;;7.35;2.97;;;13.20;99.90;;;;;;6183519;23;20312;-83
2021/10/22 00:08:39;;;;;;;9.75;2.47;;;13.30;99.90;;;;;;6183351;23;20471;-83
2021/10/22 00:11:05;;;;;;;11.75;2.60;;;13.20;99.90;;;;;;6184040;23;20091;-83
2021/10/22 00:13:30;;;;;;;10.20;2.30;;;13.20;99.90;;;;;;6183268;23;20013;-83
2021/10/22 00:15:56;;;;;;;6.45;2.20;;;13.30;99.90;;;;;;6157087;23;20008;-82
2021/10/22 00:18:22;;;;;;;11.05;2.28;;;13.30;99.90;;;;;;6184019;23;20013;-83
2021/10/22 00:20:51;;;;;;;10.65;2.63;;;13.20;99.90;;;;;;6183467;23;20004;-82
2021/10/22 00:23:17;;;;;;;8.80;2.50;;;13.10;99.90;;;;;;6157195;23;20437;-83
2021/10/22 00:25:43;;;;;;;12.93;3.60;;;13.10;99.90;;;;;;6183241;23;20075;-83
2021/10/22 00:28:09;;;;;;;11.15;3.67;;;13.00;99.90;;;;;;6156901;23;20331;-83
2021/10/22 00:30:35;;;;;;;13.40;4.55;;;12.90;99.90;;;;;;6183462;23;20001;-82
2021/10/22 00:33:01;;;;;;;11.45;3.03;;;12.80;99.90;;;;;;6183766;23;20005;-81
2021/10/22 00:35:26;;;;;;;9.65;2.65;;;12.70;99.90;;;;;;6183405;23;20082;-81
2021/10/22 00:37:52;;;;;;;11.40;1.85;;;12.70;99.90;;;;;;6183207;23;20051;-81
2021/10/22 00:40:22;;;;;;;8.80;1.88;;;12.60;99.90;;;;;;6183731;23;20008;-81
2021/10/22 00:42:48;;;;;;;15.80;2.15;;;12.60;99.90;;;;;;6183146;23;20494;-81
2021/10/22 00:45:13;;;;;;;10.48;2.10;;;12.60;99.90;;;;;;6183273;23;20036;-81
2021/10/22 00:47:39;;;;;;;11.25;1.88;;;12.50;99.90;;;;;;6183546;23;19997;-80
2021/10/22 00:50:05;;;;;;;9.73;1.83;;;12.50;99.90;;;;;;6183553;23;20005;-83
2021/10/22 00:52:31;;;;;;;25.27;3.13;;;12.50;99.90;;;;;;6183580;23;20001;-81
2021/10/22 00:54:57;;;;;;;17.73;2.90;;;12.50;99.90;;;;;;6183717;23;20012;-81
2021/10/22 00:57:24;;;;;;;13.52;2.20;;;12.50;99.90;;;;;;6183498;23;20001;-81
2021/10/22 00:59:50;;;;;;;13.05;2.15;;;12.50;99.90;;;;;;6183700;23;20005;-80
2021/10/22 01:02:16;;;;;;;15.98;2.30;;;12.40;99.90;;;;;;6183455;23;20391;-81
2021/10/22 01:04:42;;;;;;;13.18;2.40;;;12.40;99.90;;;;;;6183039;23;20016;-81
2021/10/22 01:07:09;;;;;;;13.55;2.25;;;12.40;99.90;;;;;;6156159;23;20001;-81
2021/10/22 01:09:35;;;;;;;10.18;2.35;;;12.30;99.90;;;;;;6182932;23;20076;-80
2021/10/22 01:12:01;;;;;;;8.90;2.13;;;12.30;99.90;;;;;;6183006;23;20032;-83
2021/10/22 01:14:28;;;;;;;14.50;2.38;;;12.40;99.90;;;;;;6182697;23;20481;-83
2021/10/22 01:16:53;;;;;;;15.90;2.42;;;12.30;99.90;;;;;;6183003;23;20005;-83
2021/10/22 01:19:19;;;;;;;15.88;2.90;;;12.30;99.90;;;;;;6183529;23;20001;-83
2021/10/22 01:21:47;;;;;;;12.70;2.97;;;12.20;99.90;;;;;;6183596;23;20001;-83
2021/10/22 01:24:14;;;;;;;12.65;3.58;;;12.20;99.90;;;;;;6183532;23;20008;-83
2021/10/22 01:26:40;;;;;;;15.25;3.85;;;12.20;99.90;;;;;;6160486;23;20021;-83
2021/10/22 01:29:06;;;;;;;20.48;3.78;;;12.30;99.90;;;;;;6207316;23;19997;-83
2021/10/22 01:31:32;;;;;;;14.85;3.55;;;12.20;99.90;;;;;;6183645;23;19993;-82
2021/10/22 01:33:58;;;;;;;16.10;4.65;;;12.20;99.90;;;;;;6206920;23;20022;-83
2021/10/22 01:36:24;;;;;;;18.83;4.60;;;12.20;99.90;;;;;;6191407;23;20008;-83
2021/10/22 01:38:50;;;;;;;22.05;4.85;;;12.30;99.90;;;;;;6197331;23;20233;-83
2021/10/22 01:41:17;;;;;;;17.73;5.43;;;12.40;99.90;;;;;;6206176;23;20005;-83
2021/10/22 01:43:44;;;;;;;17.63;4.90;;;12.40;99.90;;;;;;6205867;23;20520;-83
2021/10/22 01:46:10;;;;;;;17.83;5.20;;;12.40;99.90;;;;;;6200483;23;20001;-83
2021/10/22 01:48:37;;;;;;;12.82;5.35;;;12.30;99.90;;;;;;6205757;23;20233;-82
2021/10/22 01:51:04;;;;;;;19.80;5.78;;;12.20;99.90;;;;;;6180174;23;20021;-83
2021/10/22 01:53:29;;;;;;;18.20;5.75;;;12.20;99.90;;;;;;6174557;23;20096;-83
2021/10/22 01:55:55;;;;;;;13.65;5.40;;;12.20;99.90;;;;;;6183374;23;20430;-83
2021/10/22 01:58:21;;;;;;;15.23;5.30;;;12.10;99.90;;;;;;6183165;23;20008;-83
2021/10/22 02:00:47;;;;;;;11.93;4.80;;;12.10;99.90;;;;;;6183137;23;20438;-83
2021/10/22 02:03:13;;;;;;;11.80;4.75;;;12.10;99.90;;;;;;6183329;23;20002;-83
2021/10/22 02:05:39;;;;;;;17.17;5.13;;;12.00;99.90;;;;;;6183568;23;20342;-83
2021/10/22 02:08:04;;;;;;;11.15;4.43;;;12.10;99.90;;;;;;6183128;23;20136;-83
2021/10/22 02:10:30;;;;;;;12.18;4.88;;;12.10;99.90;;;;;;6183087;23;20011;-83
2021/10/22 02:12:57;;;;;;;11.75;4.68;;;12.20;99.90;;;;;;6182993;23;20036;-83
2021/10/22 02:15:23;;;;;;;9.25;4.30;;;12.20;99.90;;;;;;6156730;23;20341;-83
2021/10/22 02:17:49;;;;;;;9.75;4.93;;;12.20;99.90;;;;;;6182897;23;20033;-83
2021/10/22 02:20:15;;;;;;;12.48;4.40;;;12.20;99.90;;;;;;6182494;23;20001;-83
2021/10/22 02:22:41;;;;;;;8.98;4.55;;;12.20;99.90;;;;;;6182019;23;20008;-83
2021/10/22 02:25:07;;;;;;;8.95;3.67;;;12.20;99.90;;;;;;6182168;23;20053;-83
2021/10/22 02:27:34;;;;;;;6.80;4.50;;;12.10;99.90;;;;;;6182173;23;20443;-83
2021/10/22 02:29:59;;;;;;;8.43;4.20;;;12.10;99.90;;;;;;6182051;23;20005;-83
2021/10/22 02:32:25;;;;;;;9.80;3.92;;;12.00;99.90;;;;;;6181684;23;20000;-83
2021/10/22 02:34:51;;;;;;;8.32;3.35;;;12.00;99.90;;;;;;6182783;23;19997;-83
2021/10/22 02:37:17;;;;;;;8.90;4.13;;;12.00;99.90;;;;;;6182292;23;20005;-83
2021/10/22 02:39:42;;;;;;;7.43;3.10;;;11.90;99.90;;;;;;6182398;23;19997;-83
2021/10/22 02:42:08;;;;;;;6.57;3.35;;;11.90;99.90;;;;;;6182212;23;20012;-83
2021/10/22 02:44:34;;;;;;;5.60;2.97;;;11.90;99.90;;;;;;6155729;23;20013;-83
2021/10/22 02:47:00;;;;;;;5.93;3.13;;;11.90;99.90;;;;;;6182166;23;20001;-83
2021/10/22 02:49:26;;;;;;;7.07;2.92;;;11.90;99.90;;;;;;6182326;23;20021;-83
2021/10/22 02:51:54;;;;;;;5.43;2.67;;;11.90;99.90;;;;;;6155903;23;20481;-83
2021/10/22 02:54:21;;;;;;;4.55;3.00;;;11.90;99.90;;;;;;6182226;23;20088;-83
2021/10/22 02:56:46;;;;;;;7.68;3.42;;;11.90;99.90;;;;;;6182453;23;20000;-83
2021/10/22 02:59:12;;;;;;;7.05;3.67;;;11.90;99.90;;;;;;6182004;23;20024;-83
2021/10/22 03:01:38;;;;;;;8.55;3.60;;;11.90;99.90;;;;;;6182930;23;19997;-83
2021/10/22 03:04:03;;;;;;;6.10;3.30;;;11.90;99.90;;;;;;6155818;23;20009;-83
2021/10/22 03:06:29;;;;;;;7.22;3.10;;;11.80;99.90;;;;;;6182018;23;20307;-83
2021/10/22 03:08:55;;;;;;;8.50;3.55;;;11.90;99.90;;;;;;6182375;23;20417;-83
2021/10/22 03:11:21;;;;;;;6.85;3.88;;;11.80;99.90;;;;;;6182330;23;20358;-83
2021/10/22 03:13:47;;;;;;;5.57;3.30;;;11.80;99.90;;;;;;6182466;23;19997;-83
2021/10/22 03:16:13;;;;;;;10.60;3.65;;;11.90;99.90;;;;;;6182420;23;19998;-83
2021/10/22 03:18:40;;;;;;;15.13;4.82;;;11.90;99.90;;;;;;6182021;23;20064;-83
2021/10/22 03:21:05;;;;;;;8.40;4.55;;;11.90;99.90;;;;;;6182008;23;20059;-82
2021/10/22 03:23:31;;;;;;;9.77;4.47;;;11.80;99.90;;;;;;6181744;23;20001;-83
2021/10/22 03:25:57;;;;;;;8.68;4.18;;;11.90;99.90;;;;;;6181730;23;20021;-83
2021/10/22 03:28:23;;;;;;;11.57;4.38;;;12.00;99.90;;;;;;6181973;23;19997;-83
2021/10/22 03:30:48;;;;;;;8.65;4.25;;;12.00;99.90;;;;;;6182126;23;20005;-83
2021/10/22 03:33:15;;;;;;;10.27;4.13;;;12.00;99.90;;;;;;6182020;23;20009;-83
2021/10/22 03:35:40;;;;;;;10.13;4.20;;;12.00;99.90;;;;;;6182057;23;20047;-80
2021/10/22 03:38:06;;;;;;;10.55;4.25;;;12.00;99.90;;;;;;6182541;23;20000;-80
2021/10/22 03:40:33;;;;;;;8.10;4.20;;;12.00;99.90;;;;;;6181958;23;20055;-80
2021/10/22 03:43:00;;;;;;;11.43;4.70;;;12.00;99.90;;;;;;6181647;23;20001;-80
2021/10/22 03:45:26;;;;;;;8.05;3.90;;;12.00;99.90;;;;;;6183823;23;20217;-80
2021/10/22 03:47:53;;;;;;;11.60;4.28;;;12.00;99.90;;;;;;6184188;23;20055;-80
2021/10/22 03:50:19;;;;;;;9.63;4.35;;;12.10;99.90;;;;;;6183856;23;20009;-81
2021/10/22 03:52:46;;;;;;;8.52;4.22;;;12.10;99.90;;;;;;6183825;23;20088;-81
2021/10/22 03:55:13;;;;;;;11.25;4.88;;;12.10;99.90;;;;;;6183785;23;20001;-80
2021/10/22 03:57:38;;;;;;;12.75;5.20;;;12.20;99.90;;;;;;6156991;23;20005;-81
2021/10/22 04:00:06;;;;;;;15.77;5.20;;;12.20;99.90;;;;;;6183702;23;20051;-80
2021/10/22 04:02:32;;;;;;;10.60;4.70;;;12.20;99.90;;;;;;6183879;23;20008;-80
2021/10/22 04:04:58;;;;;;;10.45;4.45;;;12.20;99.90;;;;;;6183532;23;20009;-81
2021/10/22 04:07:24;;;;;;;11.27;4.25;;;12.20;99.90;;;;;;6183695;23;20031;-81
2021/10/22 04:09:49;;;;;;;12.68;4.75;;;12.20;99.90;;;;;;6183626;23;20005;-81
2021/10/22 04:12:15;;;;;;;16.55;4.45;;;12.20;99.90;;;;;;6183701;23;20004;-80
2021/10/22 04:14:41;;;;;;;11.35;3.67;;;12.10;99.90;;;;;;6157057;23;20020;-81
2021/10/22 04:17:06;;;;;;;14.45;3.90;;;12.10;99.90;;;;;;6183504;23;20009;-80
2021/10/22 04:19:33;;;;;;;12.32;4.53;;;12.20;99.90;;;;;;6183580;23;20001;-80
2021/10/22 04:21:59;;;;;;;14.05;4.25;;;12.10;99.90;;;;;;6183534;23;20251;-80
2021/10/22 04:24:25;;;;;;;9.35;3.75;;;12.20;99.90;;;;;;6183492;23;20535;-80
2021/10/22 04:26:51;;;;;;;14.13;4.05;;;12.10;99.90;;;;;;6157097;23;20024;-80
2021/10/22 04:29:17;;;;;;;11.52;3.88;;;12.10;99.90;;;;;;6183201;23;20064;-80
2021/10/22 04:31:43;;;;;;;10.45;4.13;;;12.10;99.90;;;;;;6183584;23;19997;-81
2021/10/22 04:34:09;;;;;;;12.20;3.65;;;12.10;99.90;;;;;;6183540;23;20005;-80
2021/10/22 04:36:36;;;;;;;10.93;3.60;;;12.10;99.90;;;;;;6184099;23;20025;-81
2021/10/22 04:41:48;;;;;;;8.55;3.38;;;12.10;99.90;;;;;;6183572;23;20064;-81
2021/10/22 04:44:15;;;;;;;10.98;4.10;;;12.10;99.90;;;;;;6183389;23;20012;-80
2021/10/22 04:46:42;;;;;;;13.27;3.83;;;12.10;99.90;;;;;;6183795;23;20476;-81
2021/10/22 04:49:08;;;;;;;21.33;4.18;;;12.00;99.90;;;;;;6183682;23;20001;-80
2021/10/22 04:51:34;;;;;;;13.20;3.65;;;12.00;99.90;;;;;;6183145;23;20051;-81
2021/10/22 04:54:00;;;;;;;14.15;4.00;;;11.90;99.90;;;;;;6183195;23;20001;-81
2021/10/22 04:56:26;;;;;;;10.57;3.60;;;12.00;99.90;;;;;;6182931;23;20509;-81
2021/10/22 04:58:51;;;;;;;15.55;4.38;;;11.90;99.90;;;;;;6183178;23;20076;-80
2021/10/22 05:01:17;;;;;;;11.00;4.28;;;11.90;99.90;;;;;;6183209;23;20005;-80
2021/10/22 05:03:43;;;;;;;11.38;3.53;;;11.90;99.90;;;;;;6183867;23;20085;-80
2021/10/22 05:06:11;;;;;;;10.10;3.85;;;11.90;99.90;;;;;;6183007;23;20465;-80
2021/10/22 05:08:38;;;;;;;9.02;3.08;;;11.80;99.90;;;;;;6156382;23;20013;-80
2021/10/22 05:11:04;;;;;;;12.93;3.63;;;11.80;99.90;;;;;;6183051;23;19997;-80
2021/10/22 05:13:30;;;;;;;14.13;3.45;;;11.80;99.90;;;;;;6182764;23;20028;-80
2021/10/22 05:15:56;;;;;;;8.82;2.60;;;11.80;99.90;;;;;;6183074;23;20426;-80
2021/10/22 05:18:22;;;;;;;11.77;2.88;;;11.70;99.90;;;;;;6183075;23;20046;-80
2021/10/22 05:20:47;;;;;;;8.85;2.75;;;11.70;99.90;;;;;;6182831;23;20001;-80
2021/10/22 05:23:13;;;;;;;8.05;2.63;;;11.70;99.90;;;;;;6182691;23;20055;-80
2021/10/22 05:25:39;;;;;;;15.48;3.08;;;11.70;99.90;;;;;;6182253;23;20021;-80
2021/10/22 05:28:05;;;;;;;14.95;2.90;;;11.50;99.90;;;;;;6156196;23;20005;-81
2021/10/22 05:30:31;;;;;;;6.97;2.72;;;11.50;99.90;;;;;;6156671;23;20012;-80
2021/10/22 05:32:57;;;;;;;8.98;2.45;;;11.50;99.90;;;;;;6156544;23;20001;-80
2021/10/22 05:35:23;;;;;;;9.85;2.42;;;11.60;99.90;;;;;;6182862;23;20418;-80
2021/10/22 05:37:49;;;;;;;9.40;2.35;;;11.60;99.90;;;;;;6182847;23;20005;-80
2021/10/22 05:40:14;;;;;;;9.07;2.50;;;11.70;99.90;;;;;;6182882;23;20614;-80
2021/10/22 05:42:40;;;;;;;7.80;2.60;;;11.70;99.90;;;;;;6182468;23;20001;-80
2021/10/22 05:45:07;;;;;;;6.75;2.05;;;11.70;99.90;;;;;;6182878;23;20017;-80
2021/10/22 05:47:34;;;;;;;8.80;2.05;;;11.70;99.90;;;;;;6182864;23;20366;-80
2021/10/22 05:50:00;;;;;;;9.43;2.63;;;11.80;99.90;;;;;;6182791;23;20512;-80
2021/10/22 05:52:26;;;;;;;10.48;2.50;;;11.80;99.90;;;;;;6182965;23;20001;-80
2021/10/22 05:54:52;;;;;;;11.85;2.53;;;11.90;99.90;;;;;;6182915;23;20080;-87
2021/10/22 05:57:18;;;;;;;9.52;2.50;;;11.80;99.90;;;;;;6182977;23;20063;-86
2021/10/22 05:59:43;;;;;;;11.73;2.50;;;11.70;99.90;;;;;;6182567;23;20443;-86
2021/10/22 06:02:09;;;;;;;8.80;2.50;;;11.60;99.90;;;;;;6182745;23;20437;-83
2021/10/22 06:04:35;;;;;;;4.45;1.98;;;11.70;99.90;;;;;;6182555;23;20438;-84
2021/10/22 06:07:01;;;;;;;9.68;2.33;;;11.70;99.90;;;;;;6182214;23;20004;-84
2021/10/22 06:09:27;;;;;;;6.55;1.92;;;11.60;99.90;;;;;;6156519;23;20005;-84
2021/10/22 06:11:53;;;;;;;8.82;2.25;;;11.50;99.90;;;;;;6156500;23;20021;-84
2021/10/22 06:14:19;;;;;;;6.03;1.90;;;11.60;99.90;;;;;;6156071;23;20005;-83
2021/10/22 06:16:44;;;;;;;8.02;2.15;;;11.50;99.90;;;;;;6182646;23;20012;-84
2021/10/22 06:19:15;;;;;;;4.60;2.00;;;11.40;99.90;;;;;;6182643;23;20007;-87
2021/10/22 06:24:10;;;;;;;5.80;2.03;;;11.40;99.90;;;;;;6182493;23;20009;-86
2021/10/22 06:26:42;;;;;;;7.03;2.20;;;11.40;99.90;;;;;;6182318;23;20020;-88
2021/10/22 06:29:10;;;;;;;5.07;1.92;;;11.40;99.90;;;;;;6182430;23;19997;-86
2021/10/22 06:31:38;;;;;;;9.80;2.20;;;11.40;99.90;;;;;;6183140;23;20001;-86
2021/10/22 06:34:04;;;;;;;13.52;2.25;;;11.40;99.90;;;;;;6182584;23;20025;-86
2021/10/22 06:36:30;;;;;;;5.95;1.98;;;11.40;99.90;;;;;;6182751;23;20074;-88
2021/10/22 06:38:56;;;;;;;2.88;1.70;;;11.40;99.90;;;;;;6182955;23;20437;-87
2021/10/22 06:41:22;;;;;;;7.63;1.92;;;11.40;99.90;;;;;;6182507;23;20005;-88
2021/10/22 06:43:48;;;;;;;6.10;2.53;;;11.30;99.90;;;;;;6182666;23;19997;-86
2021/10/22 06:46:16;;;;;;;8.07;2.03;;;11.30;99.90;;;;;;6182554;23;20019;-88
2021/10/22 06:48:43;;;;;;;6.90;2.15;;;11.30;99.90;;;;;;6156219;23;20005;-88
2021/10/22 06:51:11;;;;;;;5.18;1.83;;;11.40;99.90;;;;;;6156632;23;20012;-87
2021/10/22 06:53:37;;;;;;;6.25;1.90;;;11.30;99.90;;;;;;6156144;23;20008;-86
2021/10/22 06:56:03;;;;;;;8.23;2.17;;;11.40;99.90;;;;;;6183590;23;20069;-88
2021/10/22 06:58:29;;;;;;;4.38;1.88;;;11.40;99.90;;;;;;6155059;23;20013;-86
2021/10/22 07:00:55;;;;;;;3.70;1.63;;;11.50;99.90;;;;;;6182436;23;20327;-85
2021/10/22 07:03:25;;;;;;;4.60;1.60;;;11.50;99.90;;;;;;6182672;23;20528;-84
2021/10/22 07:08:16;;;;;;;7.15;2.10;;;11.60;99.90;;;;;;6182133;23;20055;-86
2021/10/22 07:10:42;;;;;;;5.90;1.85;;;11.50;99.90;;;;;;6156028;23;20389;-86
2021/10/22 07:13:09;;;;;;;7.53;2.20;;;11.40;99.90;;;;;;6182111;23;20005;-85
2021/10/22 07:15:35;;;;;;;4.93;1.40;;;11.50;99.90;;;;;;6156511;23;20062;-86
2021/10/22 07:18:01;;;;;;;6.57;1.70;;;11.50;99.90;;;;;;6182722;23;20001;-86
2021/10/22 07:20:28;;;;;;;5.20;1.67;;;11.50;99.90;;;;;;6184377;23;20031;-85
2021/10/22 07:22:55;;;;;;;8.90;2.58;;;11.50;99.90;;;;;;6184467;23;20072;-86
2021/10/22 07:25:23;;;;;;;5.97;1.73;;;11.40;99.90;;;;;;6184297;23;20272;-87
2021/10/22 07:27:50;;;;;;;5.90;1.63;;;11.50;99.90;;;;;;6158110;23;20452;-85
2021/10/22 07:30:16;;;;;;;7.93;1.80;;;11.40;99.90;;;;;;6183890;23;20001;-86
2021/10/22 07:32:42;;;;;;;7.00;1.70;;;11.40;99.90;;;;;;6183955;23;20437;-85
2021/10/22 07:35:09;;;;;;;5.30;2.40;;;11.40;99.90;;;;;;6183847;23;20076;-85
2021/10/22 07:37:35;;;;;;;7.63;2.17;;;11.40;99.90;;;;;;6183816;23;20008;-85
2021/10/22 07:40:03;;;;;;;4.75;2.33;;;11.50;99.90;;;;;;6184177;23;20092;-85
2021/10/22 07:42:28;;;;;;;6.57;1.90;;;11.70;99.90;;;;;;6183777;23;20338;-86
2021/10/22 07:44:56;;;;;;;7.10;2.67;;;11.60;99.90;;;;;;6183930;23;20016;-86
2021/10/22 07:47:23;;;;;;;9.50;2.38;;;11.60;99.90;;;;;;6157295;23;20326;-85
2021/10/22 07:49:50;;;;;;;8.07;2.08;;;11.70;99.90;;;;;;6183906;23;20465;-85
2021/10/22 07:52:18;;;;;;;8.07;2.88;;;11.80;99.90;;;;;;6157244;23;20011;-85
2021/10/22 07:54:47;;;;;;;9.20;2.58;;;11.70;99.90;;;;;;6184267;23;20419;-85
2021/10/22 07:57:13;;;;;;;9.68;2.33;;;11.70;99.90;;;;;;6183830;23;20084;-85
2021/10/22 07:59:39;;;;;;;9.40;2.50;;;11.80;99.90;;;;;;6183573;23;20024;-84
2021/10/22 08:02:06;;;;;;;7.22;1.95;;;11.80;99.90;;;;;;6183680;23;20008;-84
2021/10/22 08:04:32;;;;;;;11.18;3.10;;;11.90;99.90;;;;;;6183560;23;20009;-85
2021/10/22 08:06:57;;;;;;;6.20;2.45;;;12.00;99.90;;;;;;6183819;23;20004;-87
2021/10/22 08:09:23;;;;;;;6.50;1.95;;;12.00;99.90;;;;;;6183560;23;20059;-85
2021/10/22 08:11:48;;;;;;;7.28;2.28;;;12.00;99.90;;;;;;6183492;23;20005;-86
2021/10/22 08:14:14;;;;;;;13.73;2.33;;;12.00;99.90;;;;;;6157404;23;20342;-85
2021/10/22 08:16:40;;;;;;;8.00;2.17;;;12.00;99.90;;;;;;6184043;23;20005;-85
2021/10/22 08:19:06;;;;;;;7.00;2.60;;;12.00;99.90;;;;;;6184280;23;20052;-86
2021/10/22 08:24:04;;;;;;;11.40;2.60;;;12.20;99.90;;;;;;6184248;23;20030;-86
2021/10/22 08:26:30;;;;;;;9.50;2.97;;;12.30;99.90;;;;;;6183381;23;20023;-86
2021/10/22 08:28:56;;;;;;;6.95;2.45;;;12.40;99.90;;;;;;6183332;23;20076;-86
2021/10/22 08:31:22;;;;;;;7.03;3.08;;;12.40;99.90;;;;;;6156771;23;20009;-86
2021/10/22 08:33:47;;;;;;;10.45;3.22;;;12.50;99.90;;;;;;6183893;23;20032;-85
2021/10/22 08:36:13;;;;;;;10.25;2.60;;;12.40;99.90;;;;;;6157653;23;20008;-86
2021/10/22 08:38:39;;;;;;;10.50;3.35;;;12.50;99.90;;;;;;6183652;23;20217;-85
2021/10/22 08:41:09;;;;;;;5.50;2.90;;;12.50;99.90;;;;;;6183808;23;20037;-85
2021/10/22 08:43:35;;;;;;;13.40;5.30;;;12.60;99.90;;;;;;6183651;23;20161;-86
2021/10/22 08:46:09;;;;;;;11.82;4.95;;;12.70;99.90;;;;;;6183044;23;20017;-87
2021/10/22 08:48:35;;;;;;;15.10;4.88;;;12.80;99.90;;;;;;6183236;23;20001;-85
2021/10/22 08:51:01;;;;;;;11.63;5.05;;;13.00;99.90;;;;;;6183249;23;20005;-85
2021/10/22 08:53:27;;;;;;;11.23;4.30;;;13.30;99.90;;;;;;6182395;23;20008;-86
2021/10/22 08:55:52;;;;;;;8.45;3.70;;;13.40;99.90;;;;;;6183253;23;20056;-85
2021/10/22 08:58:19;;;;;;;9.27;4.05;;;13.60;99.90;;;;;;6183420;23;20369;-86
2021/10/22 09:00:46;;;;;;;11.20;4.00;;;13.60;99.90;;;;;;6183652;23;20005;-86
2021/10/22 09:03:18;;;;;;;12.30;6.30;;;13.50;99.90;;;;;;6183698;23;20063;-86
2021/10/22 09:05:57;;;;;;;12.30;6.47;;;13.50;99.90;;;;;;6183433;23;20009;-86
2021/10/22 09:08:37;;;;;;;10.93;5.10;;;13.50;99.90;;;;;;6157018;23;20047;-86
2021/10/22 09:11:17;;;;;;;11.13;4.88;;;13.40;99.90;;;;;;6183951;23;20514;-85
2021/10/22 09:13:43;;;;;;;13.15;4.95;;;13.30;99.90;;;;;;6156987;23;20180;-86
2021/10/22 09:16:22;;;;;;;15.98;6.13;;;13.40;99.90;;;;;;6183013;23;20233;-86
2021/10/22 09:18:52;;;;;;;9.65;4.45;;;13.50;99.90;;;;;;6183179;23;20001;-86
2021/10/22 09:21:32;;;;;;;16.83;9.25;;;13.50;99.90;;;;;;6182988;23;20065;-86
2021/10/22 09:24:19;;;;;;;15.85;6.90;;;13.70;99.90;;;;;;6182874;23;20051;-87
2021/10/22 09:27:01;;;;;;;11.18;5.03;;;13.80;99.90;;;;;;6182451;23;20049;-86
2021/10/22 09:29:28;;;;;;;16.92;7.40;;;13.90;99.90;;;;;;6156461;23;20031;-86
2021/10/22 09:31:56;;;;;;;12.07;4.20;;;13.90;99.90;;;;;;6183222;23;20009;-86
2021/10/22 09:34:31;;;;;;;18.27;8.13;;;13.80;99.90;;;;;;6182408;23;20107;-86
2021/10/22 09:36:58;;;;;;;18.27;8.35;;;14.00;99.90;;;;;;6182859;23;20008;-87
2021/10/22 09:39:24;;;;;;;17.75;7.53;;;13.90;99.90;;;;;;6156072;23;20101;-87
2021/10/22 09:41:53;;;;;;;22.30;9.25;;;13.90;99.90;;;;;;6155979;23;20021;-89
2021/10/22 09:44:25;;;;;;;18.90;11.52;;;14.10;99.90;;;;;;6182517;23;20036;-86
2021/10/22 09:47:06;;;;;;;15.15;7.00;;;14.10;99.90;;;;;;6182635;23;20036;-86
2021/10/22 09:49:43;;;;;;;13.80;7.60;;;14.10;99.90;;;;;;6182732;23;20076;-86
2021/10/22 09:52:22;;;;;;;11.38;5.93;;;14.20;99.90;;;;;;6182501;23;20001;-86
2021/10/22 09:55:13;;;;;;;12.52;4.85;;;14.20;99.90;;;;;;6182843;23;20001;-86
2021/10/22 09:57:44;;;;;;;9.30;3.95;;;14.20;99.90;;;;;;6155959;23;20043;-86
2021/10/22 10:00:12;;;;;;;13.85;4.13;;;14.10;99.90;;;;;;6182580;23;20056;-87
2021/10/22 10:02:38;;;;;;;14.02;3.00;;;14.20;99.90;;;;;;6182482;23;20478;-85
2021/10/22 10:05:07;;;;;;;7.50;2.92;;;14.20;99.90;;;;;;6156155;23;20043;-87
2021/10/22 10:07:38;;;;;;;10.65;3.20;;;14.20;99.90;;;;;;6182432;23;20119;-86
2021/10/22 10:10:05;;;;;;;8.07;2.88;;;14.30;99.90;;;;;;6182574;23;20454;-86
2021/10/22 10:12:31;;;;;;;7.90;2.58;;;14.30;99.90;;;;;;6182210;23;20356;-86
2021/10/22 10:14:57;;;;;;;9.55;2.75;;;14.30;99.90;;;;;;6182447;23;20005;-86
2021/10/22 10:17:23;;;;;;;8.10;2.70;;;14.30;99.90;;;;;;6156015;23;20059;-86
2021/10/22 10:19:51;;;;;;;9.18;2.92;;;14.40;99.90;;;;;;6155781;23;20015;-85
2021/10/22 10:22:20;;;;;;;7.57;2.15;;;14.30;99.90;;;;;;6182078;23;20001;-85
2021/10/22 10:24:51;;;;;;;5.90;2.42;;;14.40;99.90;;;;;;6181402;23;20042;-86
2021/10/22 10:27:25;;;;;;;7.70;3.05;;;14.40;99.90;;;;;;6182210;23;20001;-85
2021/10/22 10:29:55;;;;;;;11.50;3.13;;;14.50;99.90;;;;;;6182981;23;20012;-86
2021/10/22 10:32:26;;;;;;;9.27;2.50;;;14.60;99.90;;;;;;6182804;23;20031;-85
2021/10/22 10:34:54;;;;;;;7.32;2.95;;;14.60;99.90;;;;;;6182466;23;20004;-86
2021/10/22 10:37:21;;;;;;;10.82;2.85;;;14.60;99.90;;;;;;6182816;23;19997;-86
2021/10/22 10:40:01;;;;;;;5.13;2.30;;;14.70;99.90;;;;;;6183079;23;20464;-85
2021/10/22 10:42:32;;;;;;;8.27;2.40;;;14.80;99.90;;;;;;6183036;23;20001;-86
2021/10/22 10:45:00;;;;;;;8.10;2.60;;;15.00;99.90;;;;;;6182542;23;20012;-86
2021/10/22 10:47:33;;;;;;;8.65;2.20;;;15.00;99.90;;;;;;6182280;23;20001;-85
2021/10/22 10:50:00;;;;;;;7.70;2.42;;;15.00;99.90;;;;;;6156096;23;20017;-86
2021/10/22 10:52:38;;;;;;;8.45;1.77;;;15.00;99.90;;;;;;6182253;23;20490;-84
2021/10/22 10:55:17;;;;;;;8.45;2.30;;;15.00;99.90;;;;;;6159451;23;20097;-86
2021/10/22 10:58:13;;;;;;;5.65;1.75;;;14.90;99.90;;;;;;6158827;23;20009;-86
2021/10/22 11:00:45;;;;;;;5.13;2.13;;;15.00;99.90;;;;;;6140018;23;20353;-86
2021/10/22 11:03:20;;;;;;;6.35;1.73;;;15.10;99.90;;;;;;6185755;23;20303;-86
2021/10/22 11:05:46;;;;;;;10.27;2.10;;;14.90;99.90;;;;;;6185736;23;20023;-86
2021/10/22 11:08:21;;;;;;;8.20;2.47;;;15.00;99.90;;;;;;6159399;23;20056;-86
2021/10/22 11:11:03;;;;;;;6.68;1.60;;;15.10;99.90;;;;;;6159005;23;20101;-85
2021/10/22 11:13:49;;;;;;;8.50;1.85;;;15.20;99.90;;;;;;6185630;23;19997;-86
2021/10/22 11:16:24;;;;;;;7.47;1.73;;;15.20;99.90;;;;;;6159148;23;20086;-86
2021/10/22 11:18:54;;;;;;;5.03;1.60;;;15.20;99.90;;;;;;6158590;23;20452;-85
2021/10/22 11:21:21;;;;;;;5.07;1.55;;;15.20;99.90;;;;;;6185530;23;20008;-87
2021/10/22 11:23:48;;;;;;;9.93;1.77;;;15.20;99.90;;;;;;6185849;23;20047;-86
2021/10/22 11:26:19;;;;;;;5.43;1.35;;;15.30;99.90;;;;;;6185307;23;20021;-86
2021/10/22 11:28:55;;;;;;;5.60;1.67;;;15.30;99.90;;;;;;6185399;23;20316;-86
2021/10/22 11:31:40;;;;;;;5.88;1.63;;;15.10;99.90;;;;;;6185680;23;20008;-86
2021/10/22 11:34:17;;;;;;;6.47;1.90;;;15.10;99.90;;;;;;6185326;23;20004;-86
2021/10/22 11:37:05;;;;;;;6.03;1.75;;;15.10;99.90;;;;;;6185497;23;20112;-86
2021/10/22 11:39:50;;;;;;;5.05;1.88;;;15.20;99.90;;;;;;6185597;23;20011;-86
2021/10/22 11:42:27;;;;;;;7.90;3.00;;;15.20;99.90;;;;;;6185567;23;19997;-86
2021/10/22 11:45:04;;;;;;;7.05;1.50;;;15.20;99.90;;;;;;6185347;23;20012;-86
2021/10/22 11:47:51;;;;;;;3.67;1.38;;;15.40;99.90;;;;;;6185153;23;20394;-86
2021/10/22 11:50:30;;;;;;;4.80;1.50;;;15.60;99.90;;;;;;6183766;23;20012;-86
2021/10/22 11:53:22;;;;;;;7.95;3.47;;;15.70;99.90;;;;;;6185010;23;20005;-86
2021/10/22 11:55:52;;;;;;;11.32;3.80;;;15.90;99.90;;;;;;6185588;23;20455;-86
2021/10/22 11:58:22;;;;;;;5.40;1.67;;;16.00;99.90;;;;;;6185320;23;20008;-86
2021/10/22 12:00:53;;;;;;;4.90;1.65;;;15.90;99.90;;;;;;6185569;23;20167;-86
2021/10/22 12:03:55;;;;;;;5.32;1.70;;;15.90;99.90;;;;;;6185299;23;20012;-86
2021/10/22 12:06:25;;;;;;;3.08;1.30;;;16.00;99.90;;;;;;6158704;23;20449;-86
2021/10/22 12:08:54;;;;;;;5.43;1.40;;;16.10;99.90;;;;;;6183529;23;20129;-86
2021/10/22 12:11:23;;;;;;;4.47;1.80;;;16.20;99.90;;;;;;6183550;23;20001;-86
2021/10/22 12:13:50;;;;;;;2.63;1.05;;;16.20;99.90;;;;;;6183523;23;20005;-86
2021/10/22 12:16:25;;;;;;;5.68;1.80;;;16.20;99.70;;;;;;6183593;23;20001;-86
2021/10/22 12:18:57;;;;;;;4.07;1.70;;;16.30;99.90;;;;;;6183695;23;20072;-86
2021/10/22 12:21:24;;;;;;;3.58;1.30;;;16.40;99.90;;;;;;6183339;23;20028;-86
2021/10/22 12:23:58;;;;;;;2.90;1.20;;;16.50;99.60;;;;;;6183462;23;20032;-86
2021/10/22 12:26:26;;;;;;;5.10;2.20;;;16.70;99.90;;;;;;6156418;23;20017;-86
2021/10/22 12:29:06;;;;;;;8.27;1.88;;;16.60;99.90;;;;;;6183305;23;20025;-86
2021/10/22 12:31:36;;;;;;;4.68;1.75;;;16.60;99.90;;;;;;6183478;23;20076;-86
2021/10/22 12:34:12;;;;;;;4.35;1.80;;;16.60;99.80;;;;;;6183415;23;20011;-86
2021/10/22 12:36:40;;;;;;;5.93;1.55;;;16.60;99.90;;;;;;6183427;23;20001;-86
2021/10/22 12:39:26;;;;;;;9.35;2.53;;;16.60;99.40;;;;;;6156742;23;20013;-86
2021/10/22 12:41:52;;;;;;;5.80;2.92;;;16.80;99.50;;;;;;6157327;23;20012;-86
2021/10/22 12:44:19;;;;;;;5.15;1.60;;;16.70;99.60;;;;;;6183513;23;20225;-86
2021/10/22 12:46:59;;;;;;;4.22;2.20;;;16.80;99.90;;;;;;6183581;23;20529;-86
2021/10/22 12:49:27;;;;;;;5.22;2.20;;;16.80;98.40;;;;;;6183655;23;20084;-86
2021/10/22 12:51:56;;;;;;;7.70;2.58;;;16.90;98.40;;;;;;6183558;23;20008;-86
2021/10/22 12:54:22;;;;;;;3.72;1.33;;;16.90;98.00;;;;;;6157227;23;20012;-86
2021/10/22 12:57:01;;;;;;;4.32;1.20;;;17.00;98.50;;;;;;6183638;23;20342;-86
2021/10/22 12:59:32;;;;;;;5.28;1.10;;;17.10;97.00;;;;;;6183685;23;20021;-86